Time;durP1;ratioP1;P1;durP2;ratioP2;P2;SDS_P1;SDS_P2;PMS_P1;PMS_P2;Temp;Humidity;BMP_temperature;BMP_pressure;BME280_temperature;BME280_humidity;BME280_pressure;Samples;Min_cycle;Max_cycle;Signal;HPM_P1;HPM_P2
2021/03/11 00:00:59;;;;;;;22.00;11.20;;;6.90;99.90;;;5.27;84.91;100171.63;4914187;28;103407;-40
2021/03/11 00:03:26;;;;;;;24.42;11.45;;;6.90;99.90;;;5.28;85.41;100172.47;4929102;28;102841;-40
2021/03/11 00:05:54;;;;;;;24.55;10.90;;;6.90;99.90;;;5.33;84.86;100165.47;4914052;28;104462;-40
2021/03/11 00:08:21;;;;;;;22.85;10.80;;;6.90;99.90;;;5.35;84.34;100159.03;4945955;28;104039;-40
2021/03/11 00:10:49;;;;;;;22.98;11.20;;;7.00;99.90;;;5.37;83.97;100162.38;4929783;28;103117;-40
2021/03/11 00:13:16;;;;;;;24.60;11.10;;;7.00;99.90;;;5.38;84.44;100150.50;4945499;28;102674;-39
2021/03/11 00:15:45;;;;;;;22.97;10.47;;;7.00;99.90;;;5.42;83.97;100149.91;4929774;28;104355;-40
2021/03/11 00:18:13;;;;;;;22.45;10.63;;;7.00;99.90;;;5.41;84.49;100152.81;4929128;28;102839;-40
2021/03/11 00:20:42;;;;;;;23.30;11.57;;;7.00;99.90;;;5.36;84.26;100153.41;4945699;28;102612;-40
2021/03/11 00:23:12;;;;;;;22.00;10.77;;;7.00;99.90;;;5.38;83.94;100164.03;4946052;28;102903;-40
2021/03/11 00:25:39;;;;;;;24.48;10.20;;;7.00;99.90;;;5.42;84.30;100160.72;4929680;28;105459;-40
2021/03/11 00:28:07;;;;;;;23.30;10.82;;;7.00;99.90;;;5.43;84.12;100151.59;4946102;28;102852;-40
2021/03/11 00:30:35;;;;;;;24.17;10.43;;;7.00;99.90;;;5.44;85.53;100145.16;4930227;28;103360;-40
2021/03/11 00:33:02;;;;;;;23.05;10.60;;;7.10;99.90;;;5.39;86.14;100147.59;4946469;28;103046;-40
2021/03/11 00:35:30;;;;;;;21.67;11.18;;;7.00;99.90;;;5.37;86.97;100144.25;4929284;28;104344;-40
2021/03/11 00:37:57;;;;;;;21.10;9.87;;;7.00;99.90;;;5.39;87.33;100149.47;4914336;28;102625;-40
2021/03/11 00:40:25;;;;;;;25.55;11.85;;;7.00;99.90;;;5.34;87.48;100144.66;4913094;28;103492;-40
2021/03/11 00:42:53;;;;;;;24.80;10.40;;;7.00;99.90;;;5.21;88.18;100139.13;4945932;28;102788;-40
2021/03/11 00:45:21;;;;;;;24.37;11.13;;;6.90;99.90;;;5.24;88.90;100138.75;4912812;28;104798;-40
2021/03/11 00:47:50;;;;;;;23.98;11.20;;;6.90;99.90;;;5.18;89.14;100130.38;4930331;28;103208;-40
2021/03/11 00:50:22;;;;;;;21.15;10.82;;;6.80;99.90;;;5.18;88.80;100132.22;4929708;28;104337;-40
2021/03/11 00:52:50;;;;;;;23.27;10.15;;;6.80;99.90;;;5.23;88.98;100120.84;4929330;28;104047;-40
2021/03/11 00:55:21;;;;;;;24.30;10.88;;;6.80;99.90;;;5.23;88.71;100121.66;4945365;28;103702;-40
2021/03/11 00:57:51;;;;;;;21.35;9.52;;;6.90;99.90;;;5.22;89.30;100120.00;4962975;28;102654;-40
2021/03/11 01:00:24;;;;;;;22.88;10.57;;;6.90;99.90;;;5.16;89.39;100109.97;4930652;28;102528;-40
2021/03/11 01:03:01;;;;;;;21.30;10.15;;;6.80;99.90;;;5.16;89.40;100112.66;4946709;28;102713;-40
2021/03/11 01:05:37;;;;;;;19.70;9.70;;;6.80;99.90;;;5.12;89.54;100103.28;4930603;28;102407;-40
2021/03/11 01:08:12;;;;;;;19.88;9.98;;;6.80;99.90;;;5.12;89.38;100092.44;4932007;28;102573;-40
2021/03/11 01:10:41;;;;;;;22.83;10.18;;;6.80;99.90;;;5.09;90.02;100087.44;4929193;28;103333;-40
2021/03/11 01:13:08;;;;;;;25.27;11.00;;;6.80;99.90;;;5.09;90.25;100074.72;4945578;28;102503;-40
2021/03/11 01:15:39;;;;;;;22.63;9.40;;;6.80;99.90;;;5.11;89.72;100069.16;4944740;28;104473;-40
2021/03/11 01:18:10;;;;;;;23.67;9.80;;;6.80;99.90;;;5.15;89.76;100062.31;4928505;28;102700;-40
2021/03/11 01:20:39;;;;;;;19.88;9.43;;;6.80;99.90;;;5.12;89.45;100054.59;4913067;28;104298;-40
2021/03/11 01:23:07;;;;;;;18.77;9.10;;;6.80;99.90;;;5.16;89.47;100047.75;4928384;28;104770;-40
2021/03/11 01:25:35;;;;;;;20.42;9.10;;;6.80;99.90;;;5.17;88.57;100025.94;4945116;28;102343;-40
2021/03/11 01:28:03;;;;;;;18.98;9.35;;;6.80;99.90;;;5.15;88.93;100029.84;4928581;28;103973;-40
2021/03/11 01:30:30;;;;;;;20.33;9.05;;;6.80;99.90;;;5.20;88.25;100037.38;4928248;28;104211;-40
2021/03/11 01:32:58;;;;;;;20.30;9.30;;;6.80;99.90;;;5.23;87.96;100018.06;4928805;28;102739;-40
2021/03/11 01:35:27;;;;;;;16.27;8.02;;;6.80;99.90;;;5.26;87.88;100023.91;4912717;28;103525;-40
2021/03/11 01:37:54;;;;;;;16.83;7.85;;;6.90;99.90;;;5.27;87.36;100014.75;4945104;28;102218;-40
2021/03/11 01:40:22;;;;;;;17.20;8.80;;;6.90;99.90;;;5.31;87.10;100016.06;4944612;28;105248;-40
2021/03/11 01:42:49;;;;;;;14.63;7.55;;;6.90;99.90;;;5.43;86.47;99999.25;4944625;28;102656;-40
2021/03/11 01:45:18;;;;;;;16.95;7.85;;;7.00;99.90;;;5.50;86.08;99988.47;4911591;28;103759;-40
2021/03/11 01:47:46;;;;;;;15.15;7.05;;;7.10;99.90;;;5.48;86.05;99994.06;4928465;28;102449;-40
2021/03/11 01:50:14;;;;;;;15.85;7.10;;;7.00;99.90;;;5.64;85.27;99975.84;4912552;28;104324;-40
2021/03/11 01:52:42;;;;;;;16.02;6.93;;;7.10;99.90;;;5.66;85.61;99973.78;4962313;28;102916;-40
2021/03/11 01:55:12;;;;;;;14.07;5.57;;;7.20;99.90;;;5.81;84.24;99963.63;4912376;28;102262;-40
2021/03/11 01:57:41;;;;;;;13.40;5.90;;;7.30;99.90;;;5.89;84.12;99968.88;4944850;28;102611;-40
2021/03/11 02:00:12;;;;;;;10.93;5.72;;;7.40;99.90;;;5.89;84.37;99954.50;4944489;28;105400;-40
2021/03/11 02:02:43;;;;;;;10.05;5.15;;;7.40;99.90;;;5.87;83.86;99954.72;4985885;22;103967;-40
2021/03/11 02:05:15;;;;;;;10.35;4.70;;;7.50;99.90;;;6.06;83.15;99941.44;4933859;28;103416;-40
2021/03/11 02:07:43;;;;;;;9.25;4.25;;;7.50;99.90;;;6.14;82.37;99929.59;4961322;28;102175;-40
2021/03/11 02:10:19;;;;;;;7.28;3.80;;;7.60;99.90;;;6.23;82.28;99924.84;4960769;28;102517;-40
2021/03/11 02:13:02;;;;;;;8.55;4.13;;;7.70;99.90;;;6.27;81.63;99909.84;4961287;28;103700;-40
2021/03/11 02:15:48;;;;;;;5.03;2.85;;;7.80;99.90;;;6.38;81.13;99903.81;4927444;28;102341;-40
2021/03/11 02:18:32;;;;;;;7.40;2.95;;;7.90;99.90;;;6.44;80.54;99891.28;4960596;28;102412;-40
2021/03/11 02:21:20;;;;;;;7.28;3.08;;;7.90;99.90;;;6.47;81.38;99878.16;4928277;28;103309;-40
2021/03/11 02:24:17;;;;;;;5.53;2.60;;;8.00;99.90;;;6.55;80.39;99885.25;4959792;28;102676;-40
2021/03/11 02:26:46;;;;;;;6.95;2.85;;;8.10;99.90;;;6.60;80.57;99860.22;4944395;28;103588;-40
2021/03/11 02:29:35;;;;;;;7.05;2.80;;;8.10;99.90;;;6.67;79.71;99861.06;4928069;28;102532;-40
2021/03/11 02:32:07;;;;;;;5.43;2.33;;;8.20;99.90;;;6.73;79.36;99851.25;4959964;28;104348;-41
2021/03/11 02:34:42;;;;;;;5.97;2.50;;;8.20;99.90;;;6.77;79.98;99849.81;4927283;28;103572;-40
2021/03/11 02:37:18;;;;;;;4.93;2.30;;;8.30;99.90;;;6.78;79.44;99847.91;4912173;28;102442;-40
2021/03/11 02:39:55;;;;;;;5.43;2.42;;;8.30;99.90;;;6.73;80.30;99840.41;4944397;28;103428;-40
2021/03/11 02:42:26;;;;;;;5.68;2.55;;;8.30;99.90;;;6.74;80.43;99823.94;4926762;28;105961;-40
2021/03/11 02:44:56;;;;;;;7.07;3.25;;;8.30;99.90;;;6.73;79.95;99818.72;4959895;28;103474;-40
2021/03/11 02:47:26;;;;;;;5.95;2.72;;;8.30;99.90;;;6.70;80.48;99817.28;4927866;28;105663;-40
2021/03/11 02:49:59;;;;;;;5.57;2.65;;;8.30;99.90;;;6.78;79.38;99807.25;4944486;28;103633;-40
2021/03/11 02:52:29;;;;;;;4.82;2.20;;;8.30;99.90;;;6.84;79.11;99801.81;4928007;28;102404;-40
2021/03/11 02:54:58;;;;;;;5.18;2.30;;;8.30;99.90;;;6.92;78.62;99806.19;4943187;28;102405;-40
2021/03/11 02:57:29;;;;;;;4.03;1.95;;;8.40;99.90;;;6.99;78.25;99798.00;4943732;28;104251;-40
2021/03/11 03:00:02;;;;;;;4.53;1.88;;;8.50;99.90;;;6.99;78.57;99804.25;4960061;28;105279;-40
2021/03/11 03:02:32;;;;;;;5.97;2.15;;;8.50;99.90;;;7.08;78.24;99806.72;4927893;28;104313;-41
2021/03/11 03:05:02;;;;;;;4.07;1.83;;;8.60;99.90;;;7.12;78.23;99788.97;4962915;28;102570;-40
2021/03/11 03:07:32;;;;;;;4.15;1.98;;;8.60;99.90;;;7.17;77.41;99783.75;4947090;28;102284;-40
2021/03/11 03:10:00;;;;;;;4.43;2.22;;;8.70;99.90;;;7.12;77.79;99775.41;4930800;28;103618;-40
2021/03/11 03:12:28;;;;;;;;;;;8.60;99.90;;;7.13;77.66;99763.50;4931611;28;105120;-40
2021/03/11 03:14:56;;;;;;;3.38;1.63;;;8.60;99.90;;;7.18;78.05;99766.44;4930263;28;105073;-40
2021/03/11 03:17:24;;;;;;;;;;;8.70;99.90;;;7.16;78.62;99763.91;4948454;28;104122;-40
2021/03/11 03:19:53;;;;;;;3.90;2.20;;;8.70;99.90;;;7.23;78.43;99765.75;4963230;28;102536;-40
2021/03/11 03:22:22;;;;;;;4.38;1.88;;;8.80;99.90;;;7.21;79.03;99755.16;4947460;28;103263;-40
2021/03/11 03:24:50;;;;;;;4.32;2.17;;;8.80;99.90;;;7.19;78.88;99776.22;4945778;28;102650;-40
2021/03/11 03:27:18;;;;;;;3.97;2.20;;;8.70;99.90;;;7.22;78.22;99772.25;4930820;28;102974;-40
2021/03/11 03:29:46;;;;;;;4.95;2.50;;;8.80;99.90;;;7.22;78.65;99777.66;4946969;28;103057;-40
2021/03/11 03:32:14;;;;;;;3.78;1.95;;;8.80;99.90;;;7.22;78.77;99764.94;4947520;28;102450;-41
2021/03/11 03:34:41;;;;;;;6.10;2.40;;;8.80;99.90;;;7.25;78.72;99759.09;4930084;28;102568;-40
2021/03/11 03:37:09;;;;;;;5.20;2.43;;;8.80;99.90;;;7.20;79.37;99761.63;4930749;28;106014;-40
2021/03/11 03:39:36;;;;;;;5.17;2.13;;;8.70;99.90;;;7.16;79.67;99771.22;4930527;28;102573;-40
2021/03/11 03:42:07;;;;;;;;;;;8.70;99.90;;;7.15;79.40;99745.97;4948001;28;103297;-40
2021/03/11 03:44:41;;;;;;;4.75;2.08;;;8.70;99.90;;;7.15;79.81;99747.84;4961959;28;104368;-40
2021/03/11 03:47:12;;;;;;;6.63;2.47;;;8.70;99.90;;;7.18;79.16;99737.41;4930488;28;103316;-40
2021/03/11 03:49:42;;;;;;;4.68;2.38;;;8.70;99.90;;;7.19;79.39;99747.22;4962690;28;102538;-40
2021/03/11 03:52:13;;;;;;;4.25;2.08;;;8.70;99.90;;;7.21;78.97;99747.00;4946436;28;103244;-40
2021/03/11 03:54:43;;;;;;;5.03;2.22;;;8.70;99.90;;;7.16;79.60;99735.94;4948482;28;103569;-40
2021/03/11 03:57:17;;;;;;;5.20;2.30;;;8.70;99.90;;;7.16;79.62;99731.38;4949610;28;104195;-40
2021/03/11 03:59:50;;;;;;;5.07;2.40;;;8.70;99.90;;;7.16;79.93;99738.66;4966078;28;102639;-40
2021/03/11 04:02:21;;;;;;;4.57;2.08;;;8.70;99.90;;;7.18;79.79;99720.31;4966018;28;104338;-40
2021/03/11 04:04:52;;;;;;;5.38;2.53;;;8.70;99.90;;;7.14;80.02;99709.06;4982643;28;102354;-40
2021/03/11 04:07:25;;;;;;;6.35;2.35;;;8.70;99.90;;;7.15;80.62;99707.16;4965700;28;102227;-40
2021/03/11 04:09:54;;;;;;;4.97;2.20;;;8.70;99.90;;;7.13;80.81;99710.09;4949308;28;102590;-41
2021/03/11 04:12:23;;;;;;;4.78;2.58;;;8.70;99.90;;;7.15;80.67;99693.59;4982980;28;102351;-40
2021/03/11 04:14:52;;;;;;;5.35;2.72;;;8.70;99.90;;;7.11;80.86;99690.50;4964855;28;102485;-41
2021/03/11 04:17:21;;;;;;;5.22;2.42;;;8.70;99.90;;;7.16;80.61;99685.25;4949560;28;102329;-40
2021/03/11 04:19:50;;;;;;;5.40;2.72;;;8.70;99.90;;;7.19;80.18;99678.56;4982762;28;102323;-41
2021/03/11 04:22:18;;;;;;;5.22;2.67;;;8.70;99.90;;;7.17;80.28;99675.25;4949534;28;105100;-41
2021/03/11 04:24:46;;;;;;;5.80;2.58;;;8.70;99.90;;;7.23;80.13;99666.22;4932840;28;102885;-40
2021/03/11 04:27:14;;;;;;;5.85;2.40;;;8.70;99.90;;;7.25;80.24;99682.28;4965395;28;103344;-40
2021/03/11 04:29:42;;;;;;;;;;;8.80;99.90;;;7.29;79.91;99645.50;4934583;28;102808;-41
2021/03/11 04:32:11;;;;;;;5.63;2.22;;;8.80;99.90;;;7.26;79.91;99651.38;4950020;28;102362;-40
2021/03/11 04:34:38;;;;;;;4.68;2.33;;;8.80;99.90;;;7.29;79.22;99659.06;4964478;28;102662;-40
2021/03/11 04:37:07;;;;;;;5.10;2.53;;;8.80;99.90;;;7.36;79.07;99667.19;4933708;28;102550;-41
2021/03/11 04:39:36;;;;;;;5.78;2.45;;;8.80;99.90;;;7.39;79.46;99662.16;4965269;28;103469;-40
2021/03/11 04:42:06;;;;;;;4.20;2.35;;;8.90;99.90;;;7.40;79.56;99633.97;4965235;28;106150;-41
2021/03/11 04:44:35;;;;;;;5.53;2.60;;;8.90;99.90;;;7.42;79.54;99626.44;4964392;28;102429;-41
2021/03/11 04:47:03;;;;;;;6.20;2.90;;;8.90;99.90;;;7.47;79.21;99636.63;4948853;28;104330;-40
2021/03/11 04:49:33;;;;;;;4.45;2.25;;;9.00;99.90;;;7.50;79.18;99633.47;4965085;28;102312;-41
2021/03/11 04:52:01;;;;;;;5.05;2.45;;;9.00;99.90;;;7.54;79.04;99620.28;4965088;28;103322;-41
2021/03/11 04:54:29;;;;;;;5.35;2.50;;;9.00;99.90;;;7.58;78.85;99614.19;4932116;28;102365;-41
2021/03/11 04:56:57;;;;;;;4.22;1.90;;;9.10;99.90;;;7.59;78.87;99615.03;4949345;28;103464;-41
2021/03/11 04:59:26;;;;;;;4.82;2.13;;;9.10;99.90;;;7.61;78.60;99615.63;4949119;28;102559;-41
2021/03/11 05:01:58;;;;;;;4.57;2.17;;;9.10;99.90;;;7.68;78.32;99615.56;4982472;28;103391;-40
2021/03/11 05:04:28;;;;;;;5.72;2.40;;;9.20;99.90;;;7.67;78.33;99627.47;4962371;28;102585;-41
2021/03/11 05:06:55;;;;;;;4.03;1.77;;;9.20;99.90;;;7.63;78.99;99618.97;4964437;28;103332;-40
2021/03/11 05:09:22;;;;;;;4.82;2.40;;;9.20;99.90;;;7.62;79.32;99612.69;4948994;28;103417;-40
2021/03/11 05:11:49;;;;;;;4.53;2.55;;;9.20;99.90;;;7.60;78.91;99603.94;4948566;28;102317;-41
2021/03/11 05:14:16;;;;;;;3.77;2.10;;;9.10;99.90;;;7.61;79.18;99608.31;4947510;28;103442;-40
2021/03/11 05:16:43;;;;;;;3.70;2.10;;;9.10;99.90;;;7.69;80.19;99600.91;4964316;28;102475;-40
2021/03/11 05:19:11;;;;;;;5.30;2.47;;;9.20;99.90;;;7.61;81.85;99611.03;4932620;28;106160;-40
2021/03/11 05:21:38;;;;;;;4.72;2.20;;;9.10;99.90;;;7.56;82.99;99618.16;4948994;28;104106;-40
2021/03/11 05:24:08;;;;;;;5.30;2.30;;;9.10;99.90;;;7.49;83.59;99623.66;4947965;28;103526;-40
2021/03/11 05:26:35;;;;;;;4.43;2.38;;;9.10;99.90;;;7.42;84.26;99607.44;4981690;28;105861;-40
2021/03/11 05:29:03;;;;;;;5.73;2.53;;;9.00;99.90;;;7.47;84.49;99617.63;4948840;28;104265;-40
2021/03/11 05:31:30;;;;;;;4.22;2.20;;;9.00;99.90;;;7.41;85.36;99599.50;4964782;28;104556;-40
2021/03/11 05:34:00;;;;;;;6.22;2.50;;;9.00;99.90;;;7.36;86.06;99574.91;4964356;28;104230;-40
2021/03/11 05:36:27;;;;;;;6.35;2.53;;;8.90;99.90;;;7.32;85.54;99596.25;4964280;28;104141;-40
2021/03/11 05:38:55;;;;;;;5.03;2.42;;;8.90;99.90;;;7.26;86.52;99594.41;4982288;28;104075;-40
2021/03/11 05:41:23;;;;;;;6.15;2.38;;;8.80;99.90;;;7.25;87.14;99596.31;4948079;28;103337;-40
2021/03/11 05:43:51;;;;;;;6.07;3.10;;;8.80;99.90;;;7.24;87.32;99597.34;4947729;28;102552;-40
2021/03/11 05:46:21;;;;;;;5.47;2.80;;;8.80;99.90;;;7.22;87.69;99571.50;4948235;28;102362;-40
2021/03/11 05:48:49;;;;;;;4.70;2.33;;;8.80;99.90;;;7.21;87.99;99567.97;4964146;28;103427;-40
2021/03/11 05:51:18;;;;;;;5.93;2.47;;;8.80;99.90;;;7.21;87.48;99567.97;4963927;28;103299;-40
2021/03/11 05:53:45;;;;;;;5.15;2.30;;;8.80;99.90;;;7.19;88.22;99559.22;4980457;28;102259;-40
2021/03/11 05:56:12;;;;;;;5.30;2.55;;;8.70;99.90;;;7.22;87.24;99569.63;4981772;28;102532;-40
2021/03/11 05:58:40;;;;;;;6.63;2.50;;;8.70;99.90;;;7.24;87.54;99572.94;4948394;28;102540;-40
2021/03/11 06:01:09;;;;;;;6.03;2.90;;;8.80;99.90;;;7.26;87.51;99580.84;4915690;28;103281;-40
2021/03/11 06:03:37;;;;;;;5.55;2.15;;;8.80;99.90;;;7.31;87.03;99572.88;4962685;28;102592;-40
2021/03/11 06:06:06;;;;;;;6.20;2.45;;;8.80;99.90;;;7.35;86.64;99579.53;4981288;28;102427;-40
2021/03/11 06:08:35;;;;;;;5.63;2.45;;;8.80;99.90;;;7.37;86.47;99557.59;4981637;28;102692;-40
2021/03/11 06:11:03;;;;;;;4.80;2.65;;;8.90;99.90;;;7.37;86.54;99561.16;4963686;28;105673;-40
2021/03/11 06:13:32;;;;;;;5.97;2.58;;;8.90;99.90;;;7.43;85.95;99554.00;4930704;28;104055;-40
2021/03/11 06:16:08;;;;;;;4.50;2.33;;;8.90;99.90;;;7.53;85.41;99557.03;4981582;28;104280;-40
2021/03/11 06:18:38;;;;;;;4.55;2.42;;;9.00;99.90;;;7.51;85.53;99566.44;4980924;28;102678;-40
2021/03/11 06:21:06;;;;;;;5.60;2.60;;;9.00;99.90;;;7.49;85.72;99566.69;4964052;28;104253;-40
2021/03/11 06:23:34;;;;;;;;;;;9.00;99.90;;;7.55;85.13;99565.78;4964684;28;102597;-40
2021/03/11 06:26:02;;;;;;;6.10;2.58;;;9.10;99.90;;;7.51;85.30;99564.56;4964409;28;102410;-40
2021/03/11 06:28:48;;;;;;;6.07;2.97;;;9.10;99.90;;;7.57;85.21;99558.25;4963851;28;102540;-40
2021/03/11 06:31:28;;;;;;;4.18;2.47;;;9.10;99.90;;;7.68;84.74;99547.69;4947334;28;103031;-40
2021/03/11 06:33:59;;;;;;;6.68;2.60;;;9.10;99.90;;;7.71;84.22;99558.13;4978987;28;103061;-40
2021/03/11 06:36:30;;;;;;;4.53;2.53;;;9.20;99.90;;;7.72;84.41;99547.03;4981118;28;102355;-41
2021/03/11 06:38:58;;;;;;;5.88;2.78;;;9.20;99.90;;;7.76;84.19;99531.94;4980824;28;102553;-40
2021/03/11 06:41:44;;;;;;;6.03;2.50;;;9.20;99.90;;;7.81;83.36;99533.97;4947086;28;102548;-40
2021/03/11 06:44:11;;;;;;;5.20;2.40;;;9.30;99.90;;;7.77;83.85;99527.34;4962685;28;102656;-40
2021/03/11 06:46:57;;;;;;;6.78;2.75;;;9.30;99.90;;;7.86;83.64;99527.88;4964075;28;102525;-40
2021/03/11 06:49:24;;;;;;;5.13;2.63;;;9.30;99.90;;;7.83;83.44;99515.56;4981247;28;103795;-40
2021/03/11 06:52:13;;;;;;;5.85;2.65;;;9.40;99.90;;;7.91;83.22;99512.53;4947350;28;104104;-41
2021/03/11 06:54:54;;;;;;;5.25;2.55;;;9.40;99.90;;;7.99;82.71;99516.03;4979991;28;102612;-40
2021/03/11 06:57:41;;;;;;;4.90;2.88;;;9.50;99.90;;;7.98;82.43;99512.47;4963456;28;105138;-41
2021/03/11 07:00:21;;;;;;;7.22;2.58;;;9.50;99.90;;;8.07;82.23;99502.13;4981304;28;103569;-41
2021/03/11 07:02:53;;;;;;;6.15;2.75;;;9.50;99.90;;;8.11;81.59;99499.81;4980918;28;103285;-40
2021/03/11 07:05:24;;;;;;;4.55;2.22;;;9.60;99.90;;;8.15;81.98;99507.25;4979786;28;102479;-41
2021/03/11 07:08:13;;;;;;;6.07;2.55;;;9.60;99.90;;;8.20;81.42;99495.69;4980435;28;104234;-41
2021/03/11 07:10:47;;;;;;;5.78;2.70;;;9.70;99.90;;;8.24;81.21;99494.19;4964163;28;102609;-40
2021/03/11 07:13:15;;;;;;;4.90;2.58;;;9.70;99.90;;;8.31;81.22;99494.09;4980002;28;103353;-40
2021/03/11 07:15:42;;;;;;;5.30;2.63;;;9.70;99.90;;;8.32;81.36;99496.56;4980273;28;103457;-41
2021/03/11 07:18:24;;;;;;;6.40;2.72;;;9.80;99.90;;;8.42;80.98;99487.06;4963008;28;102426;-41
2021/03/11 07:20:51;;;;;;;6.68;2.80;;;9.80;99.90;;;8.42;81.44;99474.28;4963360;28;102233;-41
2021/03/11 07:23:20;;;;;;;6.65;2.85;;;9.90;99.90;;;8.53;82.18;99475.41;4962071;28;104293;-40
2021/03/11 07:25:49;;;;;;;5.30;2.60;;;10.00;99.90;;;8.58;82.64;99477.44;4962986;28;103434;-40
2021/03/11 07:28:28;;;;;;;5.13;2.60;;;10.00;99.90;;;8.54;83.27;99481.69;4981679;28;104499;-40
2021/03/11 07:31:26;;;;;;;6.55;2.97;;;10.00;99.90;;;8.62;82.37;99459.59;4968571;28;104549;-40
2021/03/11 07:33:56;;;;;;;4.68;2.60;;;10.10;99.90;;;8.70;82.60;99439.41;4967236;28;103584;-40
2021/03/11 07:36:23;;;;;;;6.43;2.70;;;10.10;99.90;;;8.75;81.43;99462.13;4966140;28;103290;-40
2021/03/11 07:38:51;;;;;;;4.50;2.65;;;10.20;99.90;;;8.95;80.14;99471.81;4966674;28;104324;-40
2021/03/11 07:41:19;;;;;;;4.20;2.30;;;10.30;99.90;;;9.03;81.07;99460.59;4983810;28;102976;-40
2021/03/11 07:43:47;;;;;;;4.55;2.38;;;10.40;99.90;;;9.24;79.28;99447.47;4965414;28;106458;-40
2021/03/11 07:46:15;;;;;;;4.72;2.33;;;10.60;99.90;;;9.37;79.20;99451.81;4983548;28;102306;-40
2021/03/11 07:48:43;;;;;;;5.72;2.38;;;10.70;99.90;;;9.48;78.26;99450.16;4966449;28;105480;-40
2021/03/11 07:51:12;;;;;;;5.32;2.05;;;10.80;99.90;;;9.69;78.58;99462.34;4965441;28;104470;-41
2021/03/11 07:53:40;;;;;;;4.57;2.38;;;11.00;99.90;;;9.88;77.73;99459.44;4982477;28;104080;-40
2021/03/11 07:56:09;;;;;;;4.80;2.22;;;11.20;99.90;;;9.91;77.05;99462.50;4966007;28;102441;-41
2021/03/11 07:58:43;;;;;;;7.50;2.72;;;11.30;99.90;;;9.88;76.54;99454.81;4951010;28;104336;-40
2021/03/11 08:01:13;;;;;;;4.72;2.40;;;11.30;99.90;;;9.93;76.64;99460.38;4966079;28;104387;-41
2021/03/11 08:03:49;;;;;;;4.10;1.85;;;11.30;99.90;;;9.88;77.99;99457.56;5026732;22;103196;-40
2021/03/11 08:06:26;;;;;;;6.10;2.75;;;11.30;99.90;;;9.77;78.27;99450.22;4944748;28;102210;-40
2021/03/11 08:08:54;;;;;;;5.47;2.58;;;11.30;99.90;;;9.70;77.97;99439.47;4943272;28;102479;-40
2021/03/11 08:11:35;;;;;;;6.30;2.70;;;11.20;99.90;;;9.65;77.48;99428.47;4927659;28;102336;-40
2021/03/11 08:14:24;;;;;;;4.10;2.10;;;11.10;99.90;;;9.59;78.34;99419.38;4942682;28;103281;-40
2021/03/11 08:16:54;;;;;;;4.32;2.05;;;11.10;99.90;;;9.63;77.97;99408.81;4944874;28;102588;-40
2021/03/11 08:19:42;;;;;;;4.95;2.10;;;11.10;99.90;;;9.66;77.60;99430.13;4942906;28;104097;-40
2021/03/11 08:22:09;;;;;;;6.75;1.92;;;11.10;99.90;;;9.79;76.00;99416.25;4944094;28;103443;-40
2021/03/11 08:24:47;;;;;;;3.78;2.17;;;11.20;99.90;;;9.82;76.53;99434.00;4926255;28;104360;-40
2021/03/11 08:27:35;;;;;;;3.53;1.83;;;11.20;99.90;;;9.86;75.59;99412.53;4943112;28;103623;-40
2021/03/11 08:30:06;;;;;;;4.13;1.80;;;11.30;99.90;;;9.99;75.05;99419.59;4944473;28;103556;-40
2021/03/11 08:32:52;;;;;;;4.78;2.10;;;11.30;99.90;;;10.03;75.12;99405.25;4958850;28;102561;-40
2021/03/11 08:35:39;;;;;;;5.22;1.95;;;11.40;99.90;;;10.11;74.48;99395.88;4943664;28;102172;-40
2021/03/11 08:38:27;;;;;;;5.38;2.10;;;11.50;99.90;;;10.14;73.85;99403.56;4944466;28;102251;-40
2021/03/11 08:41:08;;;;;;;5.57;2.08;;;11.60;99.90;;;10.19;74.00;99387.28;4944548;28;103391;-40
2021/03/11 08:43:36;;;;;;;4.45;1.58;;;11.60;99.90;;;10.24;73.13;99388.44;4943621;28;103373;-40
2021/03/11 08:46:25;;;;;;;6.40;1.73;;;11.60;99.90;;;10.27;71.65;99369.72;4942469;28;103285;-40
2021/03/11 08:48:57;;;;;;;3.55;1.40;;;11.70;99.90;;;10.39;70.74;99391.44;4944273;28;102224;-40
2021/03/11 08:51:26;;;;;;;4.85;1.30;;;11.70;99.90;;;10.45;69.79;99376.00;4943932;28;102390;-40
2021/03/11 08:53:55;;;;;;;5.20;1.02;;;11.80;99.90;;;10.49;69.88;99375.28;4942800;28;103713;-40
2021/03/11 08:56:36;;;;;;;3.97;1.27;;;11.90;99.90;;;10.53;70.38;99372.06;4942309;28;105960;-40
2021/03/11 08:59:15;;;;;;;2.10;0.75;;;11.90;99.90;;;10.46;69.29;99375.78;4942488;28;102574;-40
2021/03/11 09:01:54;;;;;;;4.97;0.77;;;11.90;99.90;;;10.43;69.50;99380.88;4944060;28;102970;-40
2021/03/11 09:04:23;;;;;;;3.88;0.98;;;11.90;99.90;;;10.39;69.96;99353.28;4965265;28;102575;-40
2021/03/11 09:06:55;;;;;;;1.48;0.70;;;11.90;99.90;;;10.35;69.52;99365.75;4982897;28;104355;-40
2021/03/11 09:09:42;;;;;;;2.78;0.75;;;11.80;99.90;;;10.25;70.00;99368.28;4982257;28;102369;-40
2021/03/11 09:15:21;;;;;;;4.35;1.45;;;11.60;99.90;;;10.03;72.52;99390.78;4981464;28;103760;-40
2021/03/11 09:17:49;;;;;;;3.47;0.80;;;11.50;99.90;;;9.81;73.53;99394.19;4964249;28;103383;-40
2021/03/11 09:20:17;;;;;;;4.07;1.17;;;11.40;99.90;;;9.68;74.75;99395.31;4964684;28;102707;-40
2021/03/11 09:22:54;;;;;;;;;;;11.20;99.90;;;9.53;74.85;99375.94;4983068;28;103444;-40
2021/03/11 09:25:24;;;;;;;3.25;0.90;;;11.10;99.90;;;9.42;75.18;99372.19;4964228;28;103101;-40
2021/03/11 09:27:57;;;;;;;4.82;1.20;;;10.90;99.90;;;9.51;73.66;99354.38;4963992;28;102216;-40
2021/03/11 09:30:30;;;;;;;5.05;1.10;;;11.00;99.90;;;9.58;73.19;99376.88;4981849;28;102573;-40
2021/03/11 09:33:08;;;;;;;5.20;1.40;;;11.00;99.90;;;9.54;73.53;99372.97;4964425;28;102947;-40
2021/03/11 09:35:35;;;;;;;5.80;0.93;;;11.00;99.90;;;9.51;73.36;99376.16;4981224;28;102180;-40
2021/03/11 09:38:06;;;;;;;5.30;1.10;;;11.00;99.90;;;9.48;73.54;99385.66;4982506;28;103164;-40
2021/03/11 09:40:45;;;;;;;5.78;1.05;;;10.90;99.90;;;9.49;73.34;99348.38;4981819;28;102664;-40
2021/03/11 09:43:34;;;;;;;5.05;0.93;;;11.00;99.90;;;9.52;72.83;99344.34;4981324;28;104117;-40
2021/03/11 09:46:11;;;;;;;6.63;0.73;;;11.00;99.90;;;9.69;73.20;99352.56;4981633;28;102351;-40
2021/03/11 09:48:44;;;;;;;7.05;1.42;;;11.00;99.90;;;9.98;72.30;99358.00;4964104;28;102258;-40
2021/03/11 09:51:16;;;;;;;8.40;1.60;;;11.20;99.90;;;10.12;71.04;99342.16;4963852;28;104295;-40
2021/03/11 09:53:46;;;;;;;6.63;1.30;;;11.40;99.90;;;10.27;70.10;99350.63;4980328;28;102390;-40
2021/03/11 09:56:25;;;;;;;6.35;1.50;;;11.60;99.90;;;10.32;70.49;99338.97;4981602;28;102577;-40
2021/03/11 09:58:57;;;;;;;5.82;1.13;;;11.70;99.90;;;10.56;70.29;99336.94;4981692;28;104246;-40
2021/03/11 10:01:39;;;;;;;3.67;1.05;;;11.90;99.90;;;10.71;70.48;99340.97;4981335;28;102679;-40
2021/03/11 10:04:18;;;;;;;6.88;1.40;;;12.00;99.90;;;10.87;68.96;99336.56;4964170;28;102644;-40
2021/03/11 10:06:56;;;;;;;6.63;1.45;;;12.10;99.90;;;10.95;68.80;99333.41;4981386;28;102674;-40
2021/03/11 10:09:36;;;;;;;9.00;1.80;;;12.30;99.90;;;11.11;68.16;99339.06;4964274;28;104289;-40
2021/03/11 10:12:05;;;;;;;8.45;1.65;;;12.40;99.90;;;11.28;67.42;99344.50;4981148;28;102210;-40
2021/03/11 10:14:32;;;;;;;6.35;1.50;;;12.50;99.90;;;11.34;66.26;99341.56;4980355;28;102378;-40
2021/03/11 10:17:04;;;;;;;10.67;1.77;;;12.60;99.90;;;11.47;64.42;99323.97;4963857;28;102503;-40
2021/03/11 10:19:35;;;;;;;9.55;1.58;;;12.80;99.90;;;11.57;63.85;99349.78;4981173;28;102448;-40
2021/03/11 10:22:13;;;;;;;5.85;1.27;;;12.90;99.90;;;11.69;62.79;99341.44;4981221;28;102378;-40
2021/03/11 10:24:54;;;;;;;10.20;1.90;;;13.00;99.90;;;11.78;62.95;99340.69;4964609;28;103360;-40
2021/03/11 10:27:25;;;;;;;5.65;1.35;;;13.10;99.90;;;11.96;61.09;99346.09;4964066;28;103569;-40
2021/03/11 10:30:19;;;;;;;5.30;1.27;;;13.30;99.90;;;12.19;60.19;99351.25;4981113;28;102359;-40
2021/03/11 10:33:05;;;;;;;6.47;1.38;;;13.40;99.90;;;12.34;56.36;99336.91;4981170;28;103600;-40
2021/03/11 10:35:38;;;;;;;11.02;1.88;;;13.60;99.90;;;12.51;57.34;99342.25;4947106;28;102454;-40
2021/03/11 10:38:18;;;;;;;5.65;1.60;;;13.80;99.90;;;12.53;55.47;99341.97;4964212;28;102715;-40
2021/03/11 10:40:48;;;;;;;8.05;1.50;;;13.90;99.90;;;12.56;53.50;99343.34;4980926;28;103331;-40
2021/03/11 10:43:28;;;;;;;4.28;1.30;;;13.90;99.90;;;12.47;53.95;99340.28;4963054;28;102479;-40